Time;durP1;ratioP1;P1;durP2;ratioP2;P2;SDS_P1;SDS_P2;PMS_P1;PMS_P2;Temp;Humidity;BMP_temperature;BMP_pressure;BME280_temperature;BME280_humidity;BME280_pressure;Samples;Min_cycle;Max_cycle;Signal;HPM_P1;HPM_P2
2021/07/15 00:00:38;;;;;;;2.03;1.23;;;;;;;23.04;96.08;100437.09;4980928;28;20031;-78
2021/07/15 00:03:10;;;;;;;1.77;1.50;;;;;;;23.04;96.74;100441.81;4959490;28;20169;-78
2021/07/15 00:05:38;;;;;;;4.38;1.20;;;;;;;23.01;96.36;100439.97;4966706;28;20050;-78
2021/07/15 00:08:05;;;;;;;3.75;1.40;;;;;;;22.96;97.02;100435.78;4967285;28;20045;-78
2021/07/15 00:10:34;;;;;;;3.60;1.48;;;;;;;23.03;96.14;100437.53;4969750;28;20030;-79
2021/07/15 00:13:00;;;;;;;1.30;1.20;;;;;;;23.02;96.36;100425.78;4984260;28;20067;-78
2021/07/15 00:15:27;;;;;;;1.42;1.17;;;;;;;22.92;96.50;100415.13;4970322;28;20559;-79
2021/07/15 00:17:55;;;;;;;1.55;1.10;;;;;;;22.76;98.32;100429.03;4984630;28;20026;-79
2021/07/15 00:20:21;;;;;;;2.75;1.40;;;;;;;22.80;98.42;100429.69;4985356;28;20030;-78
2021/07/15 00:22:47;;;;;;;4.13;1.40;;;;;;;22.86;98.43;100425.19;4972636;28;20043;-79
2021/07/15 00:25:16;;;;;;;3.92;1.10;;;;;;;22.71;98.83;100430.38;4960611;28;20081;-77
2021/07/15 00:27:42;;;;;;;2.78;1.38;;;;;;;22.71;99.49;100424.88;4980373;28;20121;-78
2021/07/15 00:30:09;;;;;;;6.53;1.40;;;;;;;22.75;99.57;100422.78;4980637;28;20035;-78
2021/07/15 00:32:35;;;;;;;3.90;1.25;;;;;;;22.76;98.95;100405.09;4949390;28;20065;-79
2021/07/15 00:35:01;;;;;;;1.45;1.10;;;;;;;22.78;98.89;100408.16;4966932;28;20469;-79
2021/07/15 00:37:27;;;;;;;3.75;1.40;;;;;;;22.74;99.48;100401.25;4981575;28;20062;-79
2021/07/15 00:39:53;;;;;;;3.05;1.00;;;;;;;22.70;99.81;100393.13;4964072;28;20480;-78
2021/07/15 00:42:18;;;;;;;2.35;1.10;;;;;;;22.68;99.43;100386.53;4976854;28;20035;-77
2021/07/15 00:44:44;;;;;;;1.55;1.27;;;;;;;22.69;99.51;100385.31;4967679;28;20073;-78
2021/07/15 00:47:09;;;;;;;1.85;1.30;;;;;;;22.67;99.54;100387.75;4977797;28;20097;-78
2021/07/15 00:49:35;;;;;;;1.58;1.10;;;;;;;22.63;100.00;100385.13;4978374;28;20038;-78
2021/07/15 00:52:00;;;;;;;3.15;1.48;;;;;;;22.60;99.92;100388.00;4969297;28;20034;-78
2021/07/15 00:54:26;;;;;;;1.20;1.08;;;;;;;22.59;100.00;100391.97;4965826;28;20038;-78
2021/07/15 00:56:51;;;;;;;2.22;1.20;;;;;;;22.52;100.00;100401.16;4968132;28;20061;-79
2021/07/15 00:59:20;;;;;;;1.33;1.10;;;;;;;22.55;100.00;100396.78;4964626;28;20043;-79
2021/07/15 01:01:47;;;;;;;7.32;1.63;;;;;;;22.54;100.00;100398.72;4967187;28;20039;-79
2021/07/15 01:04:13;;;;;;;1.63;1.30;;;;;;;22.57;100.00;100403.34;4968983;28;20047;-79
2021/07/15 01:06:38;;;;;;;2.28;1.13;;;;;;;22.56;100.00;100407.31;4967190;28;20049;-78
2021/07/15 01:09:04;;;;;;;4.25;1.30;;;;;;;22.56;100.00;100407.31;4974188;28;20043;-79
2021/07/15 01:11:30;;;;;;;1.45;1.35;;;;;;;22.65;100.00;100407.41;4963905;28;20045;-79
2021/07/15 01:14:05;;;;;;;2.58;1.23;;;;;;;22.53;99.95;100407.41;4971803;28;20101;-78
2021/07/15 01:16:45;;;;;;;1.20;1.10;;;;;;;22.55;100.00;100411.25;4968172;28;20037;-78
2021/07/15 01:19:38;;;;;;;3.92;1.50;;;;;;;22.40;99.77;100416.44;4968861;28;20038;-79
2021/07/15 01:22:07;;;;;;;2.20;1.40;;;;;;;22.39;100.00;100405.91;4972429;28;20035;-78
2021/07/15 01:24:51;;;;;;;4.97;1.40;;;;;;;22.42;100.00;100413.25;4980237;28;20035;-79
2021/07/15 01:27:43;;;;;;;3.28;1.40;;;;;;;22.37;100.00;100414.59;4976978;28;20180;-78
2021/07/15 01:30:11;;;;;;;1.45;1.20;;;;;;;22.37;100.00;100420.06;4973535;28;20039;-78
2021/07/15 01:33:00;;;;;;;2.13;1.17;;;;;;;22.44;100.00;100435.53;4968296;28;20031;-78
2021/07/15 01:35:30;;;;;;;3.53;1.35;;;;;;;22.40;100.00;100432.91;4985196;28;20384;-79
2021/07/15 01:37:58;;;;;;;1.48;1.20;;;;;;;22.41;100.00;100417.22;4970826;28;20256;-79
2021/07/15 01:40:31;;;;;;;6.40;1.30;;;;;;;22.44;100.00;100424.56;4972670;28;20129;-78
2021/07/15 01:43:01;;;;;;;1.70;1.15;;;;;;;22.43;100.00;100434.00;4970528;28;20097;-77
2021/07/15 01:45:28;;;;;;;1.88;1.35;;;;;;;22.37;100.00;100433.03;4970452;28;20626;-77
2021/07/15 01:47:53;;;;;;;2.47;1.30;;;;;;;22.38;100.00;100431.81;4970756;28;20030;-78
2021/07/15 01:50:19;;;;;;;2.08;1.20;;;;;;;22.29;100.00;100427.00;4970611;28;20035;-77
2021/07/15 01:52:45;;;;;;;10.38;1.60;;;;;;;22.07;100.00;100431.59;4971554;28;20510;-78
2021/07/15 01:55:12;;;;;;;2.78;1.60;;;;;;;22.11;100.00;100442.44;4971035;28;20445;-77
2021/07/15 01:57:41;;;;;;;1.48;1.35;;;;;;;22.07;100.00;100439.03;4970537;28;20106;-79
2021/07/15 02:00:07;;;;;;;1.65;1.15;;;;;;;22.13;100.00;100445.53;4970614;28;20407;-78
2021/07/15 02:02:34;;;;;;;2.10;1.15;;;;;;;22.11;100.00;100448.72;4971910;28;20039;-78
2021/07/15 02:05:01;;;;;;;1.30;1.20;;;;;;;22.15;100.00;100443.09;4983187;28;20038;-79
2021/07/15 02:07:27;;;;;;;2.92;1.30;;;;;;;22.19;100.00;100452.78;4983844;28;20042;-79
2021/07/15 02:09:55;;;;;;;1.60;1.30;;;;;;;22.07;100.00;100461.00;4978718;28;20039;-78
2021/07/15 02:12:22;;;;;;;3.45;1.30;;;;;;;21.92;100.00;100468.09;4977786;28;20171;-79
2021/07/15 02:14:52;;;;;;;4.28;1.50;;;;;;;21.95;100.00;100462.50;4956296;28;20031;-78
2021/07/15 02:17:18;;;;;;;1.23;1.15;;;;;;;21.95;100.00;100465.25;4987320;28;20414;-78
2021/07/15 02:19:45;;;;;;;2.42;1.42;;;;;;;21.86;100.00;100469.84;4976295;28;20058;-77
2021/07/15 02:22:12;;;;;;;1.52;1.33;;;;;;;21.90;100.00;100459.53;4993361;28;20109;-79
2021/07/15 02:24:39;;;;;;;1.20;1.10;;;;;;;22.02;100.00;100459.56;4976843;28;20499;-77
2021/07/15 02:27:06;;;;;;;2.75;1.50;;;;;;;22.11;100.00;100470.66;5017579;23;20070;-74
2021/07/15 02:29:32;;;;;;;2.00;1.40;;;;;;;22.15;100.00;100465.06;5024288;28;20038;-74
2021/07/15 02:32:04;;;;;;;1.33;1.23;;;;;;;22.18;100.00;100472.44;5017873;28;20029;-74
2021/07/15 02:34:38;;;;;;;1.85;1.33;;;;;;;22.16;100.00;100469.34;5012083;28;20440;-74
2021/07/15 02:37:05;;;;;;;4.95;1.30;;;;;;;22.09;100.00;100466.81;5008073;28;20120;-74
2021/07/15 02:39:31;;;;;;;3.33;1.30;;;;;;;21.92;100.00;100479.84;5019855;28;20040;-74
2021/07/15 02:41:58;;;;;;;5.95;1.60;;;;;;;22.04;100.00;100465.41;5020786;28;20034;-74
2021/07/15 02:44:25;;;;;;;1.92;1.50;;;;;;;22.04;100.00;100473.63;5019029;28;20659;-74
2021/07/15 02:46:50;;;;;;;5.68;1.40;;;;;;;22.14;100.00;100477.25;5009415;28;20449;-74
2021/07/15 02:49:16;;;;;;;2.17;1.55;;;;;;;22.08;100.00;100489.97;5028235;28;20042;-74
2021/07/15 02:51:41;;;;;;;2.80;1.60;;;;;;;22.04;100.00;100489.31;5015113;28;20471;-74
2021/07/15 02:54:07;;;;;;;2.72;1.67;;;;;;;22.18;100.00;100488.91;5016629;28;20411;-74
2021/07/15 02:56:40;;;;;;;8.43;1.65;;;;;;;22.17;100.00;100495.56;5020926;28;20419;-74
2021/07/15 02:59:19;;;;;;;2.20;1.50;;;;;;;22.11;100.00;100497.31;5011068;28;20030;-74
2021/07/15 03:02:06;;;;;;;3.38;1.67;;;;;;;21.97;100.00;100492.28;5022852;28;20124;-74
2021/07/15 03:04:48;;;;;;;3.03;1.45;;;;;;;22.04;100.00;100503.81;5012641;28;20048;-74
2021/07/15 03:07:15;;;;;;;2.50;1.50;;;;;;;22.09;100.00;100500.50;5012085;28;20479;-74
2021/07/15 03:09:41;;;;;;;1.98;1.50;;;;;;;22.14;100.00;100502.69;5014558;28;20053;-74
2021/07/15 03:12:12;;;;;;;6.45;1.75;;;;;;;22.01;100.00;100503.91;5017560;28;20032;-74
2021/07/15 03:14:42;;;;;;;3.83;1.55;;;;;;;22.03;100.00;100498.72;5030026;28;20041;-74
2021/07/15 03:17:11;;;;;;;1.50;1.40;;;;;;;22.10;100.00;100484.81;5013924;28;20033;-74
2021/07/15 03:19:40;;;;;;;6.13;1.40;;;;;;;22.15;100.00;100478.78;5019224;28;20123;-74
2021/07/15 03:22:07;;;;;;;2.88;1.60;;;;;;;22.07;100.00;100474.72;5013186;28;20379;-74
2021/07/15 03:24:36;;;;;;;6.93;1.83;;;;;;;22.08;100.00;100468.81;5015776;28;20034;-74
2021/07/15 03:27:04;;;;;;;6.07;1.88;;;;;;;22.09;100.00;100473.06;5018370;28;20497;-74
2021/07/15 03:29:34;;;;;;;3.60;1.50;;;;;;;22.07;100.00;100469.22;4999119;28;20026;-74
2021/07/15 03:32:04;;;;;;;9.13;1.60;;;;;;;21.99;100.00;100484.38;5018220;28;20128;-74
2021/07/15 03:34:30;;;;;;;6.88;1.50;;;;;;;22.01;100.00;100490.19;5026261;28;20033;-75
2021/07/15 03:36:57;;;;;;;3.75;1.40;;;;;;;21.98;100.00;100483.59;4994394;28;20762;-75
2021/07/15 03:39:23;;;;;;;4.35;1.27;;;;;;;21.89;100.00;100488.94;4997504;28;20415;-75
2021/07/15 03:41:49;;;;;;;5.78;1.42;;;;;;;21.90;100.00;100486.97;5002668;28;20037;-75
2021/07/15 03:44:16;;;;;;;2.40;1.23;;;;;;;21.95;100.00;100489.94;5002057;28;20038;-75
2021/07/15 03:46:42;;;;;;;6.40;1.50;;;;;;;22.00;100.00;100483.16;5010785;28;20478;-75
2021/07/15 03:49:09;;;;;;;5.53;1.33;;;;;;;21.96;100.00;100482.50;5008769;28;20634;-75
2021/07/15 03:51:35;;;;;;;5.70;1.20;;;;;;;21.88;100.00;100492.13;5014872;28;20033;-75
2021/07/15 03:54:02;;;;;;;4.05;1.40;;;;;;;21.80;100.00;100491.56;4995373;28;20406;-75
2021/07/15 03:56:30;;;;;;;4.60;1.30;;;;;;;21.65;100.00;100497.84;5008559;28;20034;-75
2021/07/15 03:59:00;;;;;;;1.50;1.38;;;;;;;21.51;100.00;100505.25;4997913;28;20092;-75
2021/07/15 04:01:30;;;;;;;3.33;1.52;;;;;;;21.57;100.00;100508.22;4999567;28;20052;-75
2021/07/15 04:03:58;;;;;;;1.70;1.27;;;;;;;21.45;100.00;100500.72;4996053;28;20030;-75
2021/07/15 04:06:26;;;;;;;2.25;1.50;;;;;;;21.54;100.00;100507.13;5008787;28;20039;-75
2021/07/15 04:08:51;;;;;;;3.28;1.38;;;;;;;21.56;100.00;100512.94;5006207;28;20034;-75
2021/07/15 04:11:19;;;;;;;7.85;1.70;;;;;;;21.62;100.00;100518.69;5006181;28;20379;-75
2021/07/15 04:13:46;;;;;;;1.88;1.42;;;;;;;21.58;100.00;100510.53;5000529;28;20129;-75
2021/07/15 04:16:29;;;;;;;1.30;1.08;;;;;;;21.58;100.00;100515.28;4987003;28;20037;-75
2021/07/15 04:18:57;;;;;;;3.70;1.60;;;;;;;21.54;100.00;100512.59;4997638;28;20046;-75
2021/07/15 04:21:24;;;;;;;4.32;1.58;;;;;;;21.62;100.00;100507.72;4997357;28;20120;-75
2021/07/15 04:23:55;;;;;;;6.63;1.40;;;;;;;21.70;100.00;100522.00;5017263;28;20034;-75
2021/07/15 04:26:24;;;;;;;2.95;1.38;;;;;;;21.81;100.00;100522.50;5017594;28;20060;-75
2021/07/15 04:28:50;;;;;;;3.78;1.50;;;;;;;21.85;100.00;100515.72;4999918;28;20041;-75
2021/07/15 04:31:26;;;;;;;2.85;1.50;;;;;;;21.76;100.00;100515.53;5001434;28;20086;-74
2021/07/15 04:33:53;;;;;;;6.07;1.35;;;;;;;21.89;100.00;100515.63;4997862;28;20047;-75
2021/07/15 04:36:18;;;;;;;2.72;1.85;;;;;;;21.96;100.00;100518.16;5003214;28;20386;-75
2021/07/15 04:38:44;;;;;;;1.90;1.42;;;;;;;21.84;100.00;100516.13;5000890;28;20026;-75
2021/07/15 04:41:11;;;;;;;3.40;1.58;;;;;;;21.75;100.00;100515.97;4995757;28;20034;-75
2021/07/15 04:43:38;;;;;;;2.97;1.48;;;;;;;21.76;100.00;100514.75;4999177;28;20121;-74
2021/07/15 04:46:05;;;;;;;4.47;1.63;;;;;;;21.86;100.00;100514.50;4994921;28;20034;-75
2021/07/15 04:48:32;;;;;;;3.20;1.52;;;;;;;21.83;100.00;100517.34;5000803;28;20089;-75
2021/07/15 04:50:57;;;;;;;4.25;1.60;;;;;;;21.90;100.00;100517.13;5005716;28;20559;-75
2021/07/15 04:53:24;;;;;;;2.45;1.80;;;;;;;21.86;100.00;100513.72;5003360;28;20026;-75
2021/07/15 04:55:56;;;;;;;3.42;1.75;;;;;;;21.91;100.00;100508.47;4992477;28;20038;-75
2021/07/15 04:58:25;;;;;;;5.65;2.00;;;;;;;21.83;100.00;100514.59;5013617;28;20026;-75
2021/07/15 05:01:11;;;;;;;4.28;1.70;;;;;;;21.53;100.00;100519.28;5010482;28;20395;-75
2021/07/15 05:03:37;;;;;;;2.45;1.90;;;;;;;21.58;100.00;100516.00;4976821;28;20049;-75
2021/07/15 05:06:05;;;;;;;4.57;2.00;;;;;;;21.70;100.00;100517.25;4972942;28;20134;-74
2021/07/15 05:08:31;;;;;;;8.65;2.10;;;;;;;21.68;100.00;100502.47;4994658;28;20177;-75
2021/07/15 05:10:57;;;;;;;5.47;1.88;;;;;;;21.77;100.00;100506.13;4988984;28;20038;-75
2021/07/15 05:13:23;;;;;;;3.63;1.80;;;;;;;21.92;100.00;100507.28;4987562;28;20050;-75
2021/07/15 05:15:52;;;;;;;4.05;2.00;;;;;;;22.05;100.00;100515.53;4971443;28;20055;-75
2021/07/15 05:18:20;;;;;;;6.45;2.00;;;;;;;22.47;100.00;100519.78;4989668;28;20030;-75
2021/07/15 05:20:46;;;;;;;9.43;2.10;;;;;;;23.22;97.32;100522.47;4970060;28;20046;-75
2021/07/15 05:23:12;;;;;;;4.43;1.60;;;;;;;24.06;92.89;100510.47;4990267;28;20034;-75
2021/07/15 05:25:38;;;;;;;1.73;1.63;;;;;;;25.07;88.48;100517.16;4988667;28;20161;-75
2021/07/15 05:28:04;;;;;;;2.50;1.55;;;;;;;25.96;82.86;100521.13;4988418;28;20046;-75
2021/07/15 05:30:30;;;;;;;2.35;1.35;;;;;;;26.75;79.31;100533.69;4987947;28;20034;-75
2021/07/15 05:32:56;;;;;;;4.63;1.67;;;;;;;27.57;74.20;100536.69;4967018;28;20039;-75
2021/07/15 05:35:21;;;;;;;7.22;1.80;;;;;;;27.81;73.27;100531.09;4982390;28;20050;-75
2021/07/15 05:37:47;;;;;;;4.18;1.80;;;;;;;28.02;71.40;100541.06;4970174;28;20562;-75
2021/07/15 05:40:13;;;;;;;2.63;1.83;;;;;;;27.85;70.97;100537.22;4978956;28;20120;-75
2021/07/15 05:42:39;;;;;;;1.50;1.40;;;;;;;27.74;73.03;100529.44;5014112;28;20041;-75
2021/07/15 05:45:06;;;;;;;2.40;1.80;;;;;;;28.45;70.75;100535.50;5013203;28;20056;-76
2021/07/15 05:47:31;;;;;;;8.80;2.00;;;;;;;28.79;68.43;100528.47;5009657;28;20514;-75
2021/07/15 05:49:57;;;;;;;2.67;1.58;;;;;;;29.08;67.73;100531.16;5011370;28;20077;-75
2021/07/15 05:52:22;;;;;;;7.45;2.00;;;;;;;28.87;66.37;100537.16;5020052;28;20033;-75
2021/07/15 05:54:50;;;;;;;7.53;1.95;;;;;;;28.78;67.57;100540.81;5020601;28;20168;-75
2021/07/15 05:57:16;;;;;;;3.63;1.80;;;;;;;28.44;68.62;100550.59;5003932;28;20101;-74
2021/07/15 05:59:41;;;;;;;3.28;1.85;;;;;;;27.70;71.39;100553.78;5001207;28;20515;-75
2021/07/15 06:02:08;;;;;;;3.35;2.05;;;;;;;26.95;73.42;100560.75;4999346;28;20049;-74
2021/07/15 06:04:33;;;;;;;1.77;1.67;;;;;;;26.19;77.04;100559.16;5007622;28;20040;-76
2021/07/15 06:06:59;;;;;;;3.80;1.88;;;;;;;25.69;80.72;100560.59;5006384;28;20030;-75
2021/07/15 06:09:24;;;;;;;4.45;1.92;;;;;;;25.46;82.08;100563.19;5007769;28;20112;-75
2021/07/15 06:11:50;;;;;;;3.05;1.80;;;;;;;25.06;83.16;100566.00;5004404;28;20061;-76
2021/07/15 06:14:15;;;;;;;3.58;1.80;;;;;;;24.82;85.45;100563.03;5009104;28;20033;-75
2021/07/15 06:16:41;;;;;;;1.88;1.77;;;;;;;24.55;86.97;100564.84;5011748;28;20069;-75
2021/07/15 06:19:06;;;;;;;2.40;2.20;;;;;;;24.17;87.34;100573.38;5011526;28;20045;-75
2021/07/15 06:21:32;;;;;;;3.95;2.10;;;;;;;24.21;88.40;100576.78;5005184;28;20502;-75
2021/07/15 06:23:57;;;;;;;5.05;2.28;;;;;;;24.27;89.47;100582.47;5006926;28;20060;-74
2021/07/15 06:26:23;;;;;;;4.05;2.15;;;;;;;24.36;89.28;100571.50;5004057;28;20034;-74
2021/07/15 06:28:49;;;;;;;5.38;2.28;;;;;;;24.77;88.35;100577.41;5007048;28;20049;-74
2021/07/15 06:31:14;;;;;;;5.15;1.85;;;;;;;25.07;84.71;100581.31;5010758;28;20429;-75
2021/07/15 06:33:40;;;;;;;4.53;2.20;;;;;;;24.78;84.02;100576.16;5002664;28;20141;-74
2021/07/15 06:36:09;;;;;;;2.70;2.20;;;;;;;24.91;84.15;100589.84;5007798;28;20040;-74
2021/07/15 06:38:36;;;;;;;7.93;2.60;;;;;;;25.01;82.38;100588.63;4997893;28;20030;-74
2021/07/15 06:41:04;;;;;;;5.20;2.45;;;;;;;25.12;83.20;100582.72;5014353;28;20053;-74
2021/07/15 06:43:30;;;;;;;4.10;2.42;;;;;;;25.23;81.89;100592.09;5002513;28;20065;-74
2021/07/15 06:45:55;;;;;;;2.45;2.20;;;;;;;25.44;82.74;100580.19;5015232;28;20483;-74
2021/07/15 06:48:21;;;;;;;3.80;2.20;;;;;;;26.02;83.26;100591.09;5016467;28;20041;-74
2021/07/15 06:50:47;;;;;;;5.60;3.15;;;;;;;26.36;79.05;100590.75;5005592;28;20050;-75
2021/07/15 06:53:12;;;;;;;3.28;2.40;;;;;;;26.79;79.02;100598.63;5006659;28;20037;-74
2021/07/15 06:55:38;;;;;;;5.93;2.40;;;;;;;27.13;78.28;100610.44;5000901;28;20034;-74
2021/07/15 06:58:06;;;;;;;3.05;2.58;;;;;;;27.15;76.08;100599.69;5012074;28;20044;-75
2021/07/15 07:00:32;;;;;;;3.95;2.25;;;;;;;27.12;76.35;100603.41;5007433;28;20037;-74
2021/07/15 07:02:57;;;;;;;3.78;1.80;;;;;;;26.92;77.09;100603.94;5009802;28;20065;-74
2021/07/15 07:05:23;;;;;;;3.85;2.35;;;;;;;26.68;77.64;100603.84;5003433;28;20093;-75
2021/07/15 07:07:48;;;;;;;5.18;2.58;;;;;;;26.48;77.89;100595.31;4986236;28;20030;-74
2021/07/15 07:10:16;;;;;;;4.22;2.40;;;;;;;26.13;77.85;100610.72;5004155;28;20073;-75
2021/07/15 07:12:42;;;;;;;4.00;2.83;;;;;;;25.89;80.85;100602.31;5008430;28;20033;-74
2021/07/15 07:15:10;;;;;;;3.55;2.65;;;;;;;25.68;79.61;100602.44;5008290;28;20164;-75
2021/07/15 07:17:36;;;;;;;3.72;2.60;;;;;;;25.26;81.56;100599.44;5001890;28;20033;-75
2021/07/15 07:20:03;;;;;;;6.50;2.60;;;;;;;25.50;81.34;100608.72;5009951;28;20517;-75
2021/07/15 07:22:29;;;;;;;5.15;3.03;;;;;;;25.70;80.82;100609.06;5001244;28;20073;-74
2021/07/15 07:24:54;;;;;;;3.10;2.50;;;;;;;25.89;82.19;100601.53;5008610;28;20119;-74
2021/07/15 07:27:20;;;;;;;2.60;2.40;;;;;;;26.40;79.58;100596.13;4997724;28;20514;-75
2021/07/15 07:29:45;;;;;;;5.78;2.42;;;;;;;26.83;78.00;100606.00;5016539;28;20506;-74
2021/07/15 07:32:11;;;;;;;2.72;2.30;;;;;;;26.91;73.86;100610.69;5010487;28;20033;-75
2021/07/15 07:34:36;;;;;;;4.60;2.10;;;;;;;26.84;73.80;100607.50;5010753;28;20034;-75
2021/07/15 07:37:02;;;;;;;7.30;2.45;;;;;;;26.87;74.63;100615.63;5008520;28;20045;-75
2021/07/15 07:39:27;;;;;;;2.58;2.38;;;;;;;26.55;74.50;100619.88;5011716;28;20034;-75
2021/07/15 07:41:53;;;;;;;3.28;2.75;;;;;;;26.64;76.49;100616.31;5014941;28;20021;-75
2021/07/15 07:44:18;;;;;;;4.38;2.90;;;;;;;26.56;75.35;100604.03;5008847;28;20037;-74
2021/07/15 07:46:44;;;;;;;2.92;2.30;;;;;;;26.60;76.13;100605.41;5011922;28;20074;-75
2021/07/15 07:49:10;;;;;;;7.10;2.67;;;;;;;27.06;76.48;100597.72;5003755;28;20034;-74
2021/07/15 07:51:35;;;;;;;5.78;2.33;;;;;;;27.23;76.85;100600.88;5015800;28;20038;-75
2021/07/15 07:54:01;;;;;;;3.53;2.88;;;;;;;27.61;74.47;100603.72;4998070;28;20026;-74
2021/07/15 07:56:27;;;;;;;5.22;2.85;;;;;;;27.75;73.62;100608.53;5008225;28;20028;-75
2021/07/15 07:58:53;;;;;;;4.40;2.75;;;;;;;27.96;71.46;100612.22;5007625;28;20026;-74
2021/07/15 08:01:19;;;;;;;3.88;2.55;;;;;;;28.04;71.44;100616.94;5007450;28;20029;-75
2021/07/15 08:03:45;;;;;;;3.28;2.28;;;;;;;28.12;71.05;100620.84;5008314;28;20049;-75
2021/07/15 08:06:10;;;;;;;4.70;2.38;;;;;;;28.13;70.97;100627.91;4999620;28;20038;-75
2021/07/15 08:08:38;;;;;;;2.40;2.20;;;;;;;28.05;69.83;100632.28;5007475;28;20042;-75
2021/07/15 08:11:04;;;;;;;5.00;2.50;;;;;;;28.12;71.00;100626.41;5003321;28;20079;-75
2021/07/15 08:13:29;;;;;;;2.70;2.28;;;;;;;28.33;71.81;100630.81;5007564;28;20030;-74
2021/07/15 08:15:55;;;;;;;2.97;1.88;;;;;;;28.28;70.68;100639.03;5000702;28;20038;-75
2021/07/15 08:18:20;;;;;;;2.20;2.00;;;;;;;28.28;69.90;100639.03;5003921;28;20033;-74
2021/07/15 08:20:46;;;;;;;2.00;1.70;;;;;;;28.52;69.23;100640.47;5004419;28;20085;-74
2021/07/15 08:23:13;;;;;;;2.35;2.15;;;;;;;28.22;66.98;100650.00;5006816;28;20093;-74
2021/07/15 08:25:38;;;;;;;7.53;2.25;;;;;;;28.11;66.15;100655.34;4999117;28;20532;-74
2021/07/15 08:28:04;;;;;;;1.75;1.60;;;;;;;28.23;67.81;100659.84;5019953;22;20034;-77
2021/07/15 08:30:29;;;;;;;3.80;1.80;;;;;;;28.36;66.73;100657.56;4996231;28;20025;-78
2021/07/15 08:32:55;;;;;;;4.88;1.85;;;;;;;28.24;65.87;100666.16;5008053;28;20109;-78
2021/07/15 08:35:20;;;;;;;1.63;1.52;;;;;;;28.23;67.04;100656.31;5012353;28;20042;-78
2021/07/15 08:37:46;;;;;;;2.85;1.90;;;;;;;27.56;66.07;100652.16;4994126;28;20049;-77
2021/07/15 08:40:12;;;;;;;2.90;2.10;;;;;;;27.41;68.33;100642.31;5009267;28;20036;-78
2021/07/15 08:42:39;;;;;;;4.00;1.80;;;;;;;27.69;68.45;100638.09;4998408;28;20046;-78
2021/07/15 08:45:26;;;;;;;3.80;1.98;;;;;;;28.10;70.71;100639.97;4999579;28;20039;-77
2021/07/15 08:47:54;;;;;;;2.47;1.80;;;;;;;28.39;68.36;100642.75;4948311;28;20122;-78
2021/07/15 08:50:20;;;;;;;2.10;1.80;;;;;;;28.45;67.55;100651.19;4939645;29;20186;-79
2021/07/15 08:52:46;;;;;;;2.45;1.85;;;;;;;28.73;67.04;100646.88;4931057;28;20095;-77
2021/07/15 08:57:40;;;;;;;2.00;1.90;;;;;;;28.82;65.08;100654.34;4953583;28;20582;-78
2021/07/15 09:00:16;;;;;;;2.70;1.70;;;;;;;28.61;62.41;100652.72;4937576;29;20075;-79
2021/07/15 09:02:43;;;;;;;2.08;1.65;;;;;;;28.67;63.29;100646.03;4952683;28;20046;-77
2021/07/15 09:05:10;;;;;;;2.00;1.80;;;;;;;28.52;64.48;100636.91;4954278;28;20591;-77
2021/07/15 09:07:38;;;;;;;2.78;1.48;;;;;;;28.25;65.56;100646.28;4954016;28;20043;-77
2021/07/15 09:10:05;;;;;;;2.45;1.83;;;;;;;28.18;64.76;100649.44;4937563;28;20039;-77
2021/07/15 09:12:30;;;;;;;4.95;1.80;;;;;;;28.40;64.25;100654.59;4921637;28;20039;-77
2021/07/15 09:14:56;;;;;;;2.17;1.75;;;;;;;28.36;61.56;100654.78;4938167;29;20575;-77
2021/07/15 09:17:29;;;;;;;4.30;1.83;;;;;;;28.41;63.39;100659.69;4934108;29;20070;-77
2021/07/15 09:19:54;;;;;;;4.60;1.88;;;;;;;28.21;65.46;100653.25;4953078;28;20070;-77
2021/07/15 09:22:20;;;;;;;3.35;1.80;;;;;;;28.32;65.14;100656.25;4930954;28;20420;-77
2021/07/15 09:24:46;;;;;;;2.22;1.58;;;;;;;28.71;66.14;100656.91;4957101;28;20049;-76
2021/07/15 09:27:24;;;;;;;2.40;1.98;;;;;;;28.82;64.15;100646.03;4991268;28;20087;-76
2021/07/15 09:30:12;;;;;;;2.22;1.73;;;;;;;29.24;63.93;100663.09;4993447;28;20030;-76
2021/07/15 09:32:59;;;;;;;3.05;1.90;;;;;;;29.31;59.28;100651.56;4995657;28;20097;-78
2021/07/15 09:35:27;;;;;;;2.15;1.90;;;;;;;29.02;59.05;100646.06;4997106;28;20507;-77
2021/07/15 09:37:54;;;;;;;3.10;1.65;;;;;;;28.62;60.98;100655.03;4994461;28;20042;-78
2021/07/15 09:40:40;;;;;;;2.40;1.95;;;;;;;29.18;62.49;100648.34;4986787;28;20049;-77
2021/07/15 09:43:24;;;;;;;2.30;2.10;;;;;;;29.65;61.00;100653.56;5012613;28;20392;-78
2021/07/15 09:45:55;;;;;;;2.97;2.10;;;;;;;30.02;61.39;100654.50;4992252;28;20076;-78
2021/07/15 09:48:21;;;;;;;;;;;;;;;29.98;58.61;100651.22;5009569;28;20030;-78
2021/07/15 09:50:49;;;;;;;2.67;2.20;;;;;;;30.32;59.43;100668.25;4996221;28;19929;-77
2021/07/15 09:53:14;;;;;;;7.38;2.20;;;;;;;30.19;59.26;100657.47;5007803;28;20030;-77
2021/07/15 09:55:40;;;;;;;3.78;2.42;;;;;;;30.35;58.85;100658.94;5006478;28;20049;-78
2021/07/15 09:58:08;;;;;;;2.63;2.35;;;;;;;30.33;54.77;100664.22;4990107;28;20038;-77
2021/07/15 10:00:44;;;;;;;3.15;2.47;;;;;;;29.79;55.67;100647.16;4991889;28;20115;-77
2021/07/15 10:03:15;;;;;;;4.30;2.42;;;;;;;29.87;58.50;100659.41;4990646;28;20037;-77
2021/07/15 10:05:52;;;;;;;3.53;2.00;;;;;;;29.99;58.77;100666.63;4993490;28;20050;-77
2021/07/15 10:08:26;;;;;;;2.72;2.10;;;;;;;30.61;57.47;100665.22;4997045;28;20105;-77
2021/07/15 10:10:52;;;;;;;2.92;2.08;;;;;;;31.05;57.02;100666.38;4981650;28;20433;-77
2021/07/15 10:13:20;;;;;;;3.05;2.20;;;;;;;31.05;56.82;100660.03;4991894;28;20018;-77
2021/07/15 10:15:47;;;;;;;2.95;2.08;;;;;;;30.94;55.68;100659.97;4985334;28;20045;-77
2021/07/15 10:18:14;;;;;;;8.07;2.60;;;;;;;30.82;57.15;100661.88;4995921;28;20034;-78
2021/07/15 10:20:54;;;;;;;4.55;2.42;;;;;;;30.40;57.11;100659.00;4996880;28;20112;-78
2021/07/15 10:23:30;;;;;;;2.50;2.30;;;;;;;30.18;58.78;100653.16;4992987;28;20514;-78
2021/07/15 10:25:56;;;;;;;5.25;2.50;;;;;;;30.25;59.62;100659.03;4993967;28;20174;-78
2021/07/15 10:28:22;;;;;;;2.83;2.50;;;;;;;30.62;59.21;100650.09;4990033;28;20511;-78
2021/07/15 10:30:48;;;;;;;2.90;2.13;;;;;;;30.50;56.56;100651.22;4983696;28;20533;-78
2021/07/15 10:33:14;;;;;;;2.85;2.42;;;;;;;30.59;58.15;100640.69;4999148;28;20034;-78
2021/07/15 10:35:40;;;;;;;2.40;2.20;;;;;;;30.93;56.80;100647.31;5000434;28;20042;-78
2021/07/15 10:38:06;;;;;;;6.55;2.15;;;;;;;31.26;57.16;100638.41;4983823;28;20041;-77
2021/07/15 10:40:32;;;;;;;5.43;2.78;;;;;;;31.56;57.29;100651.53;4995222;28;20487;-77
2021/07/15 10:42:58;;;;;;;2.58;2.38;;;;;;;31.46;55.13;100649.44;4999063;28;20068;-77
2021/07/15 10:45:24;;;;;;;3.05;2.78;;;;;;;31.31;52.24;100641.22;4986542;28;20542;-77
2021/07/15 10:47:54;;;;;;;4.00;2.45;;;;;;;31.24;54.66;100655.63;5001224;28;20165;-77
2021/07/15 10:50:20;;;;;;;5.22;2.50;;;;;;;31.50;53.83;100653.50;4998143;28;20408;-76
2021/07/15 10:52:47;;;;;;;4.32;2.85;;;;;;;31.88;53.29;100655.69;4989967;28;20045;-77
2021/07/15 10:55:13;;;;;;;3.40;3.10;;;;;;;32.15;51.97;100647.94;5002996;28;20050;-77
2021/07/15 10:57:39;;;;;;;8.18;3.28;;;;;;;32.20;52.58;100649.97;4990622;28;20049;-77
2021/07/15 11:00:25;;;;;;;6.88;3.00;;;;;;;32.20;52.67;100647.19;4989396;28;20030;-77
2021/07/15 11:03:12;;;;;;;4.32;3.20;;;;;;;31.78;50.05;100654.41;5003422;28;20395;-78
2021/07/15 11:05:46;;;;;;;4.95;2.85;;;;;;;31.39;51.61;100650.69;4982374;28;20695;-77
2021/07/15 11:08:12;;;;;;;3.85;3.45;;;;;;;31.76;51.64;100656.16;4992738;28;20037;-78
2021/07/15 11:10:37;;;;;;;4.20;3.80;;;;;;;31.75;50.83;100652.59;4993560;28;20030;-78
2021/07/15 11:13:04;;;;;;;4.25;3.28;;;;;;;32.17;51.35;100651.00;4991489;28;20068;-78
2021/07/15 11:15:55;;;;;;;3.63;3.30;;;;;;;32.15;52.96;100653.53;4992002;28;20070;-78
2021/07/15 11:21:26;;;;;;;5.88;3.45;;;;;;;32.30;52.42;100665.22;4996788;28;20450;-77
2021/07/15 11:24:11;;;;;;;5.20;3.70;;;;;;;31.72;53.67;100670.34;4988642;28;20030;-78
2021/07/15 11:26:41;;;;;;;6.82;3.63;;;;;;;31.74;51.63;100672.63;5006088;28;20069;-77
2021/07/15 11:29:12;;;;;;;3.80;3.40;;;;;;;31.80;50.31;100670.63;4969401;28;20037;-77
2021/07/15 11:31:44;;;;;;;7.00;3.90;;;;;;;31.75;51.81;100672.13;5003755;28;20042;-78